sensor_id;sensor_type;location;lat;lon;timestamp;P1;durP1;ratioP1;P2;durP2;ratioP2
55706;SDS011;41608;45.384;20.394;2022-11-15T00:02:13;25.10;;;16.30;;
55706;SDS011;41608;45.384;20.394;2022-11-15T00:04:39;25.17;;;16.40;;
55706;SDS011;41608;45.384;20.394;2022-11-15T00:07:05;24.83;;;16.85;;
55706;SDS011;41608;45.384;20.394;2022-11-15T00:09:31;29.65;;;19.05;;
55706;SDS011;41608;45.384;20.394;2022-11-15T00:11:57;32.22;;;19.88;;
55706;SDS011;41608;45.384;20.394;2022-11-15T00:14:23;28.23;;;17.30;;
55706;SDS011;41608;45.384;20.394;2022-11-15T00:16:49;27.00;;;17.10;;
55706;SDS011;41608;45.384;20.394;2022-11-15T00:19:15;28.58;;;17.23;;
55706;SDS011;41608;45.384;20.394;2022-11-15T00:21:41;28.90;;;16.60;;
55706;SDS011;41608;45.384;20.394;2022-11-15T00:24:07;25.70;;;15.98;;
55706;SDS011;41608;45.384;20.394;2022-11-15T00:26:33;26.83;;;16.00;;
55706;SDS011;41608;45.384;20.394;2022-11-15T00:28:59;32.80;;;18.15;;
55706;SDS011;41608;45.384;20.394;2022-11-15T00:31:25;30.33;;;17.30;;
55706;SDS011;41608;45.384;20.394;2022-11-15T00:33:51;26.80;;;16.80;;
55706;SDS011;41608;45.384;20.394;2022-11-15T00:36:17;30.60;;;15.98;;
55706;SDS011;41608;45.384;20.394;2022-11-15T00:38:44;25.52;;;16.10;;
55706;SDS011;41608;45.384;20.394;2022-11-15T00:41:10;24.65;;;16.02;;
55706;SDS011;41608;45.384;20.394;2022-11-15T00:43:36;24.05;;;16.70;;
55706;SDS011;41608;45.384;20.394;2022-11-15T00:46:02;25.60;;;16.38;;
55706;SDS011;41608;45.384;20.394;2022-11-15T00:48:28;23.33;;;14.30;;
55706;SDS011;41608;45.384;20.394;2022-11-15T00:50:55;28.70;;;17.23;;
55706;SDS011;41608;45.384;20.394;2022-11-15T00:53:21;27.50;;;16.65;;
55706;SDS011;41608;45.384;20.394;2022-11-15T00:55:47;27.15;;;17.45;;
55706;SDS011;41608;45.384;20.394;2022-11-15T00:58:13;24.98;;;16.00;;
55706;SDS011;41608;45.384;20.394;2022-11-15T01:00:39;26.30;;;17.83;;
55706;SDS011;41608;45.384;20.394;2022-11-15T01:03:05;28.27;;;16.45;;
55706;SDS011;41608;45.384;20.394;2022-11-15T01:05:31;28.13;;;16.92;;
55706;SDS011;41608;45.384;20.394;2022-11-15T01:07:57;25.35;;;15.32;;
55706;SDS011;41608;45.384;20.394;2022-11-15T01:10:23;25.83;;;16.35;;
55706;SDS011;41608;45.384;20.394;2022-11-15T01:12:51;26.67;;;14.45;;
55706;SDS011;41608;45.384;20.394;2022-11-15T01:15:17;24.90;;;17.23;;
55706;SDS011;41608;45.384;20.394;2022-11-15T01:17:43;26.83;;;18.27;;
55706;SDS011;41608;45.384;20.394;2022-11-15T01:20:09;29.90;;;17.27;;
55706;SDS011;41608;45.384;20.394;2022-11-15T01:22:35;28.63;;;17.40;;
55706;SDS011;41608;45.384;20.394;2022-11-15T01:25:02;25.48;;;17.05;;
55706;SDS011;41608;45.384;20.394;2022-11-15T01:27:29;30.33;;;15.75;;
55706;SDS011;41608;45.384;20.394;2022-11-15T01:29:55;25.67;;;15.13;;
55706;SDS011;41608;45.384;20.394;2022-11-15T01:32:21;25.10;;;16.15;;
55706;SDS011;41608;45.384;20.394;2022-11-15T01:34:47;21.88;;;14.52;;
55706;SDS011;41608;45.384;20.394;2022-11-15T01:37:13;24.23;;;14.32;;
55706;SDS011;41608;45.384;20.394;2022-11-15T01:39:39;24.55;;;14.48;;
55706;SDS011;41608;45.384;20.394;2022-11-15T01:42:05;29.30;;;15.07;;
55706;SDS011;41608;45.384;20.394;2022-11-15T01:47:01;24.75;;;16.08;;
55706;SDS011;41608;45.384;20.394;2022-11-15T01:49:28;29.83;;;15.23;;
55706;SDS011;41608;45.384;20.394;2022-11-15T01:51:56;28.58;;;17.15;;
55706;SDS011;41608;45.384;20.394;2022-11-15T01:54:22;27.67;;;16.35;;
55706;SDS011;41608;45.384;20.394;2022-11-15T01:56:53;31.67;;;21.13;;
55706;SDS011;41608;45.384;20.394;2022-11-15T01:59:21;34.50;;;22.45;;
55706;SDS011;41608;45.384;20.394;2022-11-15T02:01:47;40.20;;;24.52;;
55706;SDS011;41608;45.384;20.394;2022-11-15T02:04:20;41.60;;;25.23;;
55706;SDS011;41608;45.384;20.394;2022-11-15T02:06:46;33.47;;;22.95;;
55706;SDS011;41608;45.384;20.394;2022-11-15T02:09:14;40.53;;;24.33;;
55706;SDS011;41608;45.384;20.394;2022-11-15T02:11:40;35.28;;;23.52;;
55706;SDS011;41608;45.384;20.394;2022-11-15T02:14:07;30.80;;;20.63;;
55706;SDS011;41608;45.384;20.394;2022-11-15T02:24:40;20.30;;;11.82;;
55706;SDS011;41608;45.384;20.394;2022-11-15T02:27:22;17.13;;;11.10;;
55706;SDS011;41608;45.384;20.394;2022-11-15T02:32:22;16.88;;;10.35;;
55706;SDS011;41608;45.384;20.394;2022-11-15T02:34:58;16.35;;;11.38;;
55706;SDS011;41608;45.384;20.394;2022-11-15T02:37:39;15.88;;;10.77;;
55706;SDS011;41608;45.384;20.394;2022-11-15T02:42:40;17.00;;;10.98;;
55706;SDS011;41608;45.384;20.394;2022-11-15T02:45:33;20.42;;;11.30;;
55706;SDS011;41608;45.384;20.394;2022-11-15T02:48:01;22.17;;;11.82;;
55706;SDS011;41608;45.384;20.394;2022-11-15T02:50:29;19.27;;;11.32;;
55706;SDS011;41608;45.384;20.394;2022-11-15T02:52:56;19.85;;;11.70;;
55706;SDS011;41608;45.384;20.394;2022-11-15T02:55:32;15.38;;;10.77;;
55706;SDS011;41608;45.384;20.394;2022-11-15T02:58:35;15.90;;;10.07;;
55706;SDS011;41608;45.384;20.394;2022-11-15T03:00:59;14.15;;;9.65;;
55706;SDS011;41608;45.384;20.394;2022-11-15T03:11:18;17.00;;;10.47;;
55706;SDS011;41608;45.384;20.394;2022-11-15T03:13:53;16.02;;;9.80;;
55706;SDS011;41608;45.384;20.394;2022-11-15T03:19:08;13.82;;;8.57;;
55706;SDS011;41608;45.384;20.394;2022-11-15T03:21:37;13.95;;;8.48;;
55706;SDS011;41608;45.384;20.394;2022-11-15T03:24:05;14.85;;;8.98;;
55706;SDS011;41608;45.384;20.394;2022-11-15T03:26:32;13.88;;;8.98;;
55706;SDS011;41608;45.384;20.394;2022-11-15T03:29:01;11.52;;;7.22;;
55706;SDS011;41608;45.384;20.394;2022-11-15T03:31:31;12.63;;;8.45;;
55706;SDS011;41608;45.384;20.394;2022-11-15T03:34:21;11.50;;;7.68;;
55706;SDS011;41608;45.384;20.394;2022-11-15T03:36:48;19.80;;;8.63;;
55706;SDS011;41608;45.384;20.394;2022-11-15T03:39:16;13.43;;;8.77;;
55706;SDS011;41608;45.384;20.394;2022-11-15T03:42:18;10.98;;;7.22;;
55706;SDS011;41608;45.384;20.394;2022-11-15T03:49:52;10.13;;;6.90;;
55706;SDS011;41608;45.384;20.394;2022-11-15T03:52:19;11.82;;;6.95;;
55706;SDS011;41608;45.384;20.394;2022-11-15T03:54:53;13.27;;;7.10;;
55706;SDS011;41608;45.384;20.394;2022-11-15T03:57:20;9.45;;;6.38;;
55706;SDS011;41608;45.384;20.394;2022-11-15T03:59:46;12.93;;;6.90;;
55706;SDS011;41608;45.384;20.394;2022-11-15T04:02:12;12.07;;;6.85;;
55706;SDS011;41608;45.384;20.394;2022-11-15T04:04:38;14.82;;;7.00;;
55706;SDS011;41608;45.384;20.394;2022-11-15T04:07:04;10.75;;;6.78;;
55706;SDS011;41608;45.384;20.394;2022-11-15T04:09:30;10.60;;;6.97;;
55706;SDS011;41608;45.384;20.394;2022-11-15T04:11:57;12.27;;;7.95;;
55706;SDS011;41608;45.384;20.394;2022-11-15T04:14:23;9.80;;;6.28;;
55706;SDS011;41608;45.384;20.394;2022-11-15T04:16:49;11.50;;;7.22;;
55706;SDS011;41608;45.384;20.394;2022-11-15T04:19:15;14.50;;;6.93;;
55706;SDS011;41608;45.384;20.394;2022-11-15T04:21:59;11.07;;;7.40;;
55706;SDS011;41608;45.384;20.394;2022-11-15T04:24:44;13.40;;;7.53;;
55706;SDS011;41608;45.384;20.394;2022-11-15T04:27:10;11.68;;;8.35;;
55706;SDS011;41608;45.384;20.394;2022-11-15T04:29:38;12.00;;;8.25;;
55706;SDS011;41608;45.384;20.394;2022-11-15T04:32:05;12.90;;;7.50;;
55706;SDS011;41608;45.384;20.394;2022-11-15T04:34:31;9.70;;;6.50;;
55706;SDS011;41608;45.384;20.394;2022-11-15T04:36:58;10.80;;;6.53;;
55706;SDS011;41608;45.384;20.394;2022-11-15T04:39:41;12.27;;;8.30;;
55706;SDS011;41608;45.384;20.394;2022-11-15T04:42:08;14.00;;;7.78;;
55706;SDS011;41608;45.384;20.394;2022-11-15T04:44:34;10.38;;;7.20;;
55706;SDS011;41608;45.384;20.394;2022-11-15T04:47:00;13.98;;;7.40;;
55706;SDS011;41608;45.384;20.394;2022-11-15T04:49:26;14.18;;;8.05;;
55706;SDS011;41608;45.384;20.394;2022-11-15T04:51:53;14.48;;;8.43;;
55706;SDS011;41608;45.384;20.394;2022-11-15T04:54:19;19.80;;;11.63;;
55706;SDS011;41608;45.384;20.394;2022-11-15T04:56:45;24.45;;;13.38;;
55706;SDS011;41608;45.384;20.394;2022-11-15T04:59:11;22.95;;;15.13;;
55706;SDS011;41608;45.384;20.394;2022-11-15T05:01:37;24.92;;;15.90;;
55706;SDS011;41608;45.384;20.394;2022-11-15T05:04:03;22.10;;;16.15;;
55706;SDS011;41608;45.384;20.394;2022-11-15T05:06:48;28.02;;;17.30;;
55706;SDS011;41608;45.384;20.394;2022-11-15T05:09:15;23.50;;;15.68;;
55706;SDS011;41608;45.384;20.394;2022-11-15T05:11:41;19.17;;;11.40;;
55706;SDS011;41608;45.384;20.394;2022-11-15T05:14:08;20.67;;;12.77;;
55706;SDS011;41608;45.384;20.394;2022-11-15T05:16:34;16.65;;;9.93;;
55706;SDS011;41608;45.384;20.394;2022-11-15T05:19:00;16.83;;;10.60;;
55706;SDS011;41608;45.384;20.394;2022-11-15T05:21:26;20.45;;;12.88;;
55706;SDS011;41608;45.384;20.394;2022-11-15T05:23:52;28.10;;;14.32;;
55706;SDS011;41608;45.384;20.394;2022-11-15T05:26:18;22.58;;;15.45;;
55706;SDS011;41608;45.384;20.394;2022-11-15T05:28:45;26.08;;;15.02;;
55706;SDS011;41608;45.384;20.394;2022-11-15T05:31:11;26.38;;;16.08;;
55706;SDS011;41608;45.384;20.394;2022-11-15T05:33:38;24.77;;;14.82;;
55706;SDS011;41608;45.384;20.394;2022-11-15T05:38:50;18.15;;;10.45;;
55706;SDS011;41608;45.384;20.394;2022-11-15T05:41:20;13.07;;;8.52;;
55706;SDS011;41608;45.384;20.394;2022-11-15T05:43:47;11.85;;;7.60;;
55706;SDS011;41608;45.384;20.394;2022-11-15T05:46:14;16.75;;;10.52;;
55706;SDS011;41608;45.384;20.394;2022-11-15T05:48:41;18.10;;;10.77;;
55706;SDS011;41608;45.384;20.394;2022-11-15T05:51:08;17.75;;;11.55;;
55706;SDS011;41608;45.384;20.394;2022-11-15T05:53:35;19.75;;;12.00;;
55706;SDS011;41608;45.384;20.394;2022-11-15T05:56:03;19.80;;;11.70;;
55706;SDS011;41608;45.384;20.394;2022-11-15T05:58:30;18.63;;;11.38;;
55706;SDS011;41608;45.384;20.394;2022-11-15T06:00:57;20.17;;;12.98;;
55706;SDS011;41608;45.384;20.394;2022-11-15T06:03:23;15.68;;;10.00;;
55706;SDS011;41608;45.384;20.394;2022-11-15T06:05:49;14.35;;;8.23;;
55706;SDS011;41608;45.384;20.394;2022-11-15T06:08:15;16.10;;;8.98;;
55706;SDS011;41608;45.384;20.394;2022-11-15T06:10:41;16.85;;;9.50;;
55706;SDS011;41608;45.384;20.394;2022-11-15T06:13:07;16.95;;;9.30;;
55706;SDS011;41608;45.384;20.394;2022-11-15T06:15:33;19.30;;;12.30;;
55706;SDS011;41608;45.384;20.394;2022-11-15T06:17:59;24.15;;;13.15;;
55706;SDS011;41608;45.384;20.394;2022-11-15T06:20:26;20.75;;;12.82;;
55706;SDS011;41608;45.384;20.394;2022-11-15T06:23:00;19.67;;;10.57;;
55706;SDS011;41608;45.384;20.394;2022-11-15T06:25:27;14.52;;;10.77;;
55706;SDS011;41608;45.384;20.394;2022-11-15T06:27:54;21.88;;;13.43;;
55706;SDS011;41608;45.384;20.394;2022-11-15T06:30:20;22.70;;;12.98;;
55706;SDS011;41608;45.384;20.394;2022-11-15T06:32:46;19.25;;;13.27;;
55706;SDS011;41608;45.384;20.394;2022-11-15T06:35:13;18.65;;;12.80;;
55706;SDS011;41608;45.384;20.394;2022-11-15T06:37:39;17.90;;;12.48;;
55706;SDS011;41608;45.384;20.394;2022-11-15T06:40:05;24.95;;;13.73;;
55706;SDS011;41608;45.384;20.394;2022-11-15T06:42:32;20.85;;;14.00;;
55706;SDS011;41608;45.384;20.394;2022-11-15T06:44:58;23.65;;;13.95;;
55706;SDS011;41608;45.384;20.394;2022-11-15T06:47:24;24.02;;;16.50;;
55706;SDS011;41608;45.384;20.394;2022-11-15T06:49:50;27.60;;;15.57;;
55706;SDS011;41608;45.384;20.394;2022-11-15T06:52:16;22.88;;;14.98;;
55706;SDS011;41608;45.384;20.394;2022-11-15T06:54:44;18.95;;;9.88;;
55706;SDS011;41608;45.384;20.394;2022-11-15T06:57:10;18.88;;;9.93;;
55706;SDS011;41608;45.384;20.394;2022-11-15T06:59:36;20.27;;;10.57;;
55706;SDS011;41608;45.384;20.394;2022-11-15T07:02:02;13.93;;;9.30;;
55706;SDS011;41608;45.384;20.394;2022-11-15T07:04:29;15.93;;;10.15;;
55706;SDS011;41608;45.384;20.394;2022-11-15T07:06:55;14.35;;;10.20;;
55706;SDS011;41608;45.384;20.394;2022-11-15T07:09:21;20.00;;;12.55;;
55706;SDS011;41608;45.384;20.394;2022-11-15T07:11:47;24.15;;;15.02;;
55706;SDS011;41608;45.384;20.394;2022-11-15T07:14:13;25.33;;;15.30;;
55706;SDS011;41608;45.384;20.394;2022-11-15T07:16:39;21.73;;;13.45;;
55706;SDS011;41608;45.384;20.394;2022-11-15T07:19:05;14.63;;;9.30;;
55706;SDS011;41608;45.384;20.394;2022-11-15T07:21:32;17.20;;;10.18;;
55706;SDS011;41608;45.384;20.394;2022-11-15T07:23:58;16.27;;;9.98;;
55706;SDS011;41608;45.384;20.394;2022-11-15T07:26:24;16.92;;;9.70;;
55706;SDS011;41608;45.384;20.394;2022-11-15T07:28:50;23.13;;;11.57;;
55706;SDS011;41608;45.384;20.394;2022-11-15T07:31:16;24.25;;;12.88;;
55706;SDS011;41608;45.384;20.394;2022-11-15T07:33:42;23.17;;;13.40;;
55706;SDS011;41608;45.384;20.394;2022-11-15T07:36:08;16.35;;;10.90;;
55706;SDS011;41608;45.384;20.394;2022-11-15T07:38:35;21.60;;;12.73;;
55706;SDS011;41608;45.384;20.394;2022-11-15T07:41:02;17.85;;;10.35;;
55706;SDS011;41608;45.384;20.394;2022-11-15T07:43:28;17.95;;;10.50;;
55706;SDS011;41608;45.384;20.394;2022-11-15T07:45:57;21.40;;;11.57;;
55706;SDS011;41608;45.384;20.394;2022-11-15T07:48:23;23.20;;;12.02;;
55706;SDS011;41608;45.384;20.394;2022-11-15T07:50:50;24.13;;;12.65;;
55706;SDS011;41608;45.384;20.394;2022-11-15T07:53:16;19.13;;;13.35;;
55706;SDS011;41608;45.384;20.394;2022-11-15T07:55:42;27.20;;;15.20;;
55706;SDS011;41608;45.384;20.394;2022-11-15T07:58:09;24.95;;;15.20;;
55706;SDS011;41608;45.384;20.394;2022-11-15T08:00:35;37.30;;;20.95;;
55706;SDS011;41608;45.384;20.394;2022-11-15T08:03:06;31.75;;;18.85;;
55706;SDS011;41608;45.384;20.394;2022-11-15T08:05:32;26.25;;;16.60;;
55706;SDS011;41608;45.384;20.394;2022-11-15T08:07:59;18.35;;;13.13;;
55706;SDS011;41608;45.384;20.394;2022-11-15T08:10:25;20.02;;;11.75;;
55706;SDS011;41608;45.384;20.394;2022-11-15T08:12:59;23.60;;;13.38;;
55706;SDS011;41608;45.384;20.394;2022-11-15T08:15:25;19.60;;;12.27;;
55706;SDS011;41608;45.384;20.394;2022-11-15T08:17:55;20.77;;;12.75;;
55706;SDS011;41608;45.384;20.394;2022-11-15T08:20:22;16.80;;;11.30;;
55706;SDS011;41608;45.384;20.394;2022-11-15T08:22:48;16.98;;;10.15;;
55706;SDS011;41608;45.384;20.394;2022-11-15T08:25:14;19.60;;;11.75;;
55706;SDS011;41608;45.384;20.394;2022-11-15T08:27:40;19.98;;;14.00;;
55706;SDS011;41608;45.384;20.394;2022-11-15T08:30:06;27.00;;;14.25;;
55706;SDS011;41608;45.384;20.394;2022-11-15T08:32:33;23.70;;;16.73;;
55706;SDS011;41608;45.384;20.394;2022-11-15T08:34:59;25.67;;;16.15;;
55706;SDS011;41608;45.384;20.394;2022-11-15T08:37:25;25.92;;;14.52;;
55706;SDS011;41608;45.384;20.394;2022-11-15T08:39:51;21.50;;;12.15;;
55706;SDS011;41608;45.384;20.394;2022-11-15T08:42:17;19.05;;;13.02;;
55706;SDS011;41608;45.384;20.394;2022-11-15T08:44:43;18.63;;;11.80;;
55706;SDS011;41608;45.384;20.394;2022-11-15T08:47:10;23.05;;;14.05;;
55706;SDS011;41608;45.384;20.394;2022-11-15T08:49:38;22.73;;;14.13;;
55706;SDS011;41608;45.384;20.394;2022-11-15T08:52:04;25.63;;;13.70;;
55706;SDS011;41608;45.384;20.394;2022-11-15T08:54:30;21.67;;;14.32;;
55706;SDS011;41608;45.384;20.394;2022-11-15T08:56:56;18.70;;;11.98;;
55706;SDS011;41608;45.384;20.394;2022-11-15T08:59:22;19.67;;;12.95;;
55706;SDS011;41608;45.384;20.394;2022-11-15T09:01:49;23.42;;;12.48;;
55706;SDS011;41608;45.384;20.394;2022-11-15T09:04:15;22.90;;;15.65;;
55706;SDS011;41608;45.384;20.394;2022-11-15T09:06:41;18.83;;;11.65;;
55706;SDS011;41608;45.384;20.394;2022-11-15T09:09:07;19.80;;;12.43;;
55706;SDS011;41608;45.384;20.394;2022-11-15T09:11:33;24.10;;;12.73;;
55706;SDS011;41608;45.384;20.394;2022-11-15T09:13:59;20.52;;;12.05;;
55706;SDS011;41608;45.384;20.394;2022-11-15T09:16:25;17.77;;;10.63;;
55706;SDS011;41608;45.384;20.394;2022-11-15T09:18:52;16.92;;;10.20;;
55706;SDS011;41608;45.384;20.394;2022-11-15T09:21:19;27.65;;;15.15;;
55706;SDS011;41608;45.384;20.394;2022-11-15T09:23:45;19.48;;;12.43;;
55706;SDS011;41608;45.384;20.394;2022-11-15T09:26:11;23.98;;;12.13;;
55706;SDS011;41608;45.384;20.394;2022-11-15T09:28:37;15.65;;;10.77;;
55706;SDS011;41608;45.384;20.394;2022-11-15T09:31:07;16.27;;;10.15;;
55706;SDS011;41608;45.384;20.394;2022-11-15T09:33:33;22.70;;;13.13;;
55706;SDS011;41608;45.384;20.394;2022-11-15T09:36:03;19.27;;;11.30;;
55706;SDS011;41608;45.384;20.394;2022-11-15T09:38:30;23.25;;;13.48;;
55706;SDS011;41608;45.384;20.394;2022-11-15T09:46:36;22.30;;;14.55;;
55706;SDS011;41608;45.384;20.394;2022-11-15T09:49:03;25.40;;;15.60;;
55706;SDS011;41608;45.384;20.394;2022-11-15T09:51:37;22.98;;;13.20;;
55706;SDS011;41608;45.384;20.394;2022-11-15T09:54:15;19.95;;;12.80;;
55706;SDS011;41608;45.384;20.394;2022-11-15T09:56:42;21.92;;;11.82;;
55706;SDS011;41608;45.384;20.394;2022-11-15T10:02:16;17.90;;;10.68;;
55706;SDS011;41608;45.384;20.394;2022-11-15T10:04:50;20.17;;;12.45;;
55706;SDS011;41608;45.384;20.394;2022-11-15T10:07:39;20.75;;;13.68;;
55706;SDS011;41608;45.384;20.394;2022-11-15T10:10:20;19.67;;;12.20;;
55706;SDS011;41608;45.384;20.394;2022-11-15T10:12:49;20.70;;;13.63;;
55706;SDS011;41608;45.384;20.394;2022-11-15T10:15:16;18.75;;;13.10;;
55706;SDS011;41608;45.384;20.394;2022-11-15T10:20:24;23.52;;;17.05;;
55706;SDS011;41608;45.384;20.394;2022-11-15T10:22:52;25.75;;;13.73;;
55706;SDS011;41608;45.384;20.394;2022-11-15T10:25:23;19.25;;;13.40;;
55706;SDS011;41608;45.384;20.394;2022-11-15T10:28:32;19.75;;;14.38;;
55706;SDS011;41608;45.384;20.394;2022-11-15T10:30:40;23.30;;;14.70;;
55706;SDS011;41608;45.384;20.394;2022-11-15T10:41:15;22.35;;;13.27;;
55706;SDS011;41608;45.384;20.394;2022-11-15T10:43:42;20.73;;;12.95;;
55706;SDS011;41608;45.384;20.394;2022-11-15T10:46:21;19.15;;;12.68;;
55706;SDS011;41608;45.384;20.394;2022-11-15T10:48:47;20.17;;;12.75;;
55706;SDS011;41608;45.384;20.394;2022-11-15T10:51:21;20.27;;;12.73;;
55706;SDS011;41608;45.384;20.394;2022-11-15T10:53:47;24.88;;;14.20;;
55706;SDS011;41608;45.384;20.394;2022-11-15T10:56:14;30.38;;;14.60;;
55706;SDS011;41608;45.384;20.394;2022-11-15T10:58:44;24.33;;;14.93;;
55706;SDS011;41608;45.384;20.394;2022-11-15T11:01:17;26.27;;;15.63;;
55706;SDS011;41608;45.384;20.394;2022-11-15T11:03:44;22.00;;;15.90;;
55706;SDS011;41608;45.384;20.394;2022-11-15T11:08:36;25.77;;;17.83;;
55706;SDS011;41608;45.384;20.394;2022-11-15T11:11:03;29.98;;;17.67;;
55706;SDS011;41608;45.384;20.394;2022-11-15T11:13:34;27.65;;;17.25;;
55706;SDS011;41608;45.384;20.394;2022-11-15T11:16:18;29.10;;;16.52;;
55706;SDS011;41608;45.384;20.394;2022-11-15T11:18:54;26.65;;;17.05;;
55706;SDS011;41608;45.384;20.394;2022-11-15T11:21:26;24.48;;;15.32;;
55706;SDS011;41608;45.384;20.394;2022-11-15T11:24:07;28.60;;;17.38;;
55706;SDS011;41608;45.384;20.394;2022-11-15T11:31:59;30.77;;;20.55;;
55706;SDS011;41608;45.384;20.394;2022-11-15T11:37:10;32.20;;;19.87;;
55706;SDS011;41608;45.384;20.394;2022-11-15T11:47:30;33.92;;;20.95;;
55706;SDS011;41608;45.384;20.394;2022-11-15T11:50:10;30.52;;;19.88;;
55706;SDS011;41608;45.384;20.394;2022-11-15T11:52:55;34.00;;;20.20;;
55706;SDS011;41608;45.384;20.394;2022-11-15T11:58:20;35.00;;;21.67;;
55706;SDS011;41608;45.384;20.394;2022-11-15T12:00:51;29.60;;;21.77;;
55706;SDS011;41608;45.384;20.394;2022-11-15T12:05:51;35.20;;;20.40;;
55706;SDS011;41608;45.384;20.394;2022-11-15T12:08:24;34.17;;;20.77;;
55706;SDS011;41608;45.384;20.394;2022-11-15T12:11:35;38.00;;;23.00;;
55706;SDS011;41608;45.384;20.394;2022-11-15T12:13:40;35.72;;;22.00;;
55706;SDS011;41608;45.384;20.394;2022-11-15T12:18:33;32.67;;;21.63;;
55706;SDS011;41608;45.384;20.394;2022-11-15T12:23:51;31.48;;;22.33;;
55706;SDS011;41608;45.384;20.394;2022-11-15T12:26:20;38.17;;;22.80;;
55706;SDS011;41608;45.384;20.394;2022-11-15T12:28:52;38.38;;;24.70;;
55706;SDS011;41608;45.384;20.394;2022-11-15T12:34:01;32.92;;;22.77;;
55706;SDS011;41608;45.384;20.394;2022-11-15T12:36:38;34.85;;;23.83;;
55706;SDS011;41608;45.384;20.394;2022-11-15T12:39:06;38.28;;;24.42;;
55706;SDS011;41608;45.384;20.394;2022-11-15T12:41:34;34.03;;;22.00;;
55706;SDS011;41608;45.384;20.394;2022-11-15T12:44:03;35.08;;;22.80;;
55706;SDS011;41608;45.384;20.394;2022-11-15T12:59:48;32.28;;;21.67;;
55706;SDS011;41608;45.384;20.394;2022-11-15T13:02:18;33.15;;;22.65;;
55706;SDS011;41608;45.384;20.394;2022-11-15T13:04:46;36.08;;;24.85;;
55706;SDS011;41608;45.384;20.394;2022-11-15T13:09:59;43.33;;;24.60;;
55706;SDS011;41608;45.384;20.394;2022-11-15T13:17:24;38.30;;;25.42;;
55706;SDS011;41608;45.384;20.394;2022-11-15T13:19:58;37.92;;;24.58;;
55706;SDS011;41608;45.384;20.394;2022-11-15T13:22:26;38.40;;;23.63;;
55706;SDS011;41608;45.384;20.394;2022-11-15T13:30:48;39.80;;;25.73;;
55706;SDS011;41608;45.384;20.394;2022-11-15T13:33:35;41.40;;;26.65;;
55706;SDS011;41608;45.384;20.394;2022-11-15T13:36:03;36.53;;;25.50;;
55706;SDS011;41608;45.384;20.394;2022-11-15T13:38:37;45.42;;;27.20;;
55706;SDS011;41608;45.384;20.394;2022-11-15T13:41:26;38.58;;;26.25;;
55706;SDS011;41608;45.384;20.394;2022-11-15T13:43:53;42.40;;;28.52;;
55706;SDS011;41608;45.384;20.394;2022-11-15T13:46:20;48.05;;;28.40;;
55706;SDS011;41608;45.384;20.394;2022-11-15T13:48:47;42.25;;;29.45;;
55706;SDS011;41608;45.384;20.394;2022-11-15T13:51:28;45.65;;;29.85;;
55706;SDS011;41608;45.384;20.394;2022-11-15T13:53:56;42.00;;;29.30;;
55706;SDS011;41608;45.384;20.394;2022-11-15T13:56:26;45.88;;;29.60;;
55706;SDS011;41608;45.384;20.394;2022-11-15T13:58:54;49.30;;;31.40;;
55706;SDS011;41608;45.384;20.394;2022-11-15T14:01:21;55.15;;;33.10;;
55706;SDS011;41608;45.384;20.394;2022-11-15T14:06:15;54.30;;;31.13;;
55706;SDS011;41608;45.384;20.394;2022-11-15T14:08:42;40.70;;;30.02;;
55706;SDS011;41608;45.384;20.394;2022-11-15T14:11:18;53.03;;;32.80;;
55706;SDS011;41608;45.384;20.394;2022-11-15T14:16:55;49.17;;;32.53;;
55706;SDS011;41608;45.384;20.394;2022-11-15T14:24:32;54.05;;;32.03;;
55706;SDS011;41608;45.384;20.394;2022-11-15T14:29:46;54.35;;;36.08;;
55706;SDS011;41608;45.384;20.394;2022-11-15T14:32:19;55.10;;;34.78;;
55706;SDS011;41608;45.384;20.394;2022-11-15T14:34:46;55.50;;;35.70;;
55706;SDS011;41608;45.384;20.394;2022-11-15T14:37:19;55.38;;;35.25;;
55706;SDS011;41608;45.384;20.394;2022-11-15T14:39:46;49.80;;;32.45;;
55706;SDS011;41608;45.384;20.394;2022-11-15T14:42:12;46.95;;;32.88;;
55706;SDS011;41608;45.384;20.394;2022-11-15T14:44:38;52.63;;;32.33;;
55706;SDS011;41608;45.384;20.394;2022-11-15T14:47:04;48.15;;;31.95;;
55706;SDS011;41608;45.384;20.394;2022-11-15T14:49:30;63.90;;;34.33;;
55706;SDS011;41608;45.384;20.394;2022-11-15T14:51:56;57.13;;;34.35;;
55706;SDS011;41608;45.384;20.394;2022-11-15T14:54:22;54.88;;;34.95;;
55706;SDS011;41608;45.384;20.394;2022-11-15T14:56:48;51.40;;;33.95;;
55706;SDS011;41608;45.384;20.394;2022-11-15T14:59:14;55.03;;;36.40;;
55706;SDS011;41608;45.384;20.394;2022-11-15T15:01:40;62.97;;;37.28;;
55706;SDS011;41608;45.384;20.394;2022-11-15T15:04:08;55.95;;;35.22;;
55706;SDS011;41608;45.384;20.394;2022-11-15T15:06:36;60.03;;;38.05;;
55706;SDS011;41608;45.384;20.394;2022-11-15T15:09:02;69.28;;;42.83;;
55706;SDS011;41608;45.384;20.394;2022-11-15T15:11:31;69.65;;;44.45;;
55706;SDS011;41608;45.384;20.394;2022-11-15T15:13:57;73.63;;;45.38;;
55706;SDS011;41608;45.384;20.394;2022-11-15T15:16:26;65.40;;;45.45;;
55706;SDS011;41608;45.384;20.394;2022-11-15T15:18:57;77.80;;;45.17;;
55706;SDS011;41608;45.384;20.394;2022-11-15T15:21:26;79.28;;;49.15;;
55706;SDS011;41608;45.384;20.394;2022-11-15T15:23:53;76.18;;;46.00;;
55706;SDS011;41608;45.384;20.394;2022-11-15T15:26:19;68.00;;;43.83;;
55706;SDS011;41608;45.384;20.394;2022-11-15T15:28:45;89.82;;;51.63;;
55706;SDS011;41608;45.384;20.394;2022-11-15T15:31:13;90.70;;;55.33;;
55706;SDS011;41608;45.384;20.394;2022-11-15T15:33:39;88.80;;;56.85;;
55706;SDS011;41608;45.384;20.394;2022-11-15T15:36:16;102.72;;;68.28;;
55706;SDS011;41608;45.384;20.394;2022-11-15T15:38:43;113.07;;;56.72;;
55706;SDS011;41608;45.384;20.394;2022-11-15T15:41:10;93.22;;;62.28;;
55706;SDS011;41608;45.384;20.394;2022-11-15T15:43:36;93.93;;;58.95;;
55706;SDS011;41608;45.384;20.394;2022-11-15T15:46:02;95.03;;;57.42;;
55706;SDS011;41608;45.384;20.394;2022-11-15T15:48:28;96.88;;;61.00;;
55706;SDS011;41608;45.384;20.394;2022-11-15T15:50:54;100.40;;;59.78;;
55706;SDS011;41608;45.384;20.394;2022-11-15T15:53:20;100.38;;;57.70;;
55706;SDS011;41608;45.384;20.394;2022-11-15T15:55:46;111.43;;;69.07;;
55706;SDS011;41608;45.384;20.394;2022-11-15T15:58:13;112.93;;;65.55;;
55706;SDS011;41608;45.384;20.394;2022-11-15T16:00:39;106.25;;;66.93;;
55706;SDS011;41608;45.384;20.394;2022-11-15T16:03:05;100.82;;;64.45;;
55706;SDS011;41608;45.384;20.394;2022-11-15T16:05:31;115.18;;;68.50;;
55706;SDS011;41608;45.384;20.394;2022-11-15T16:07:57;136.93;;;71.57;;
55706;SDS011;41608;45.384;20.394;2022-11-15T16:10:25;112.00;;;75.45;;
55706;SDS011;41608;45.384;20.394;2022-11-15T16:12:51;124.35;;;78.63;;
55706;SDS011;41608;45.384;20.394;2022-11-15T16:15:18;133.57;;;73.22;;
55706;SDS011;41608;45.384;20.394;2022-11-15T16:17:54;123.32;;;74.95;;
55706;SDS011;41608;45.384;20.394;2022-11-15T16:22:46;135.52;;;82.07;;
55706;SDS011;41608;45.384;20.394;2022-11-15T16:25:12;141.98;;;89.95;;
55706;SDS011;41608;45.384;20.394;2022-11-15T16:27:38;156.55;;;96.35;;